createdAt,value
2019-03-29T00:00:22.976Z,82.50
2019-03-29T00:01:27.245Z,83.20
2019-03-29T00:02:32.972Z,83.10
2019-03-29T00:03:43.524Z,83.20
2019-03-29T00:04:52.254Z,83.20
2019-03-29T00:05:57.944Z,82.60
2019-03-29T00:07:02.216Z,83.40
2019-03-29T00:08:14.442Z,83.40
2019-03-29T00:09:15.527Z,83.50
2019-03-29T00:10:20.290Z,83.60
2019-03-29T00:11:24.956Z,83.80
2019-03-29T00:12:31.058Z,83.60
2019-03-29T00:13:36.368Z,83.60
2019-03-29T00:14:43.250Z,83.60
2019-03-29T00:15:47.207Z,83.70
2019-03-29T00:16:57.047Z,83.50
2019-03-29T00:18:07.653Z,83.70
2019-03-29T00:19:14.136Z,83.70
2019-03-29T00:20:20.201Z,83.80
2019-03-29T00:21:24.517Z,83.80
2019-03-29T00:22:31.396Z,83.80
2019-03-29T00:23:35.568Z,83.80
2019-03-29T00:24:43.059Z,83.70
2019-03-29T00:25:54.943Z,84.00
2019-03-29T00:27:03.915Z,83.80
2019-03-29T00:28:12.462Z,84.00
2019-03-29T00:29:21.224Z,83.90
2019-03-29T00:30:27.024Z,83.90
2019-03-29T00:31:33.856Z,84.10
2019-03-29T00:32:38.048Z,83.90
2019-03-29T00:33:47.119Z,83.90
2019-03-29T00:34:57.693Z,84.00
2019-03-29T00:35:58.425Z,84.20
2019-03-29T00:37:06.128Z,84.10
2019-03-29T00:38:19.393Z,84.00
2019-03-29T00:39:26.634Z,84.20
2019-03-29T00:40:30.876Z,84.20
2019-03-29T00:41:36.886Z,84.50
2019-03-29T00:42:43.108Z,84.30
2019-03-29T00:43:49.088Z,84.60
2019-03-29T00:44:56.772Z,84.50
2019-03-29T00:46:00.406Z,84.30
2019-03-29T00:47:08.977Z,84.60
2019-03-29T00:48:13.372Z,84.60
2019-03-29T00:49:24.683Z,84.50
2019-03-29T00:50:32.383Z,84.90
2019-03-29T00:51:37.431Z,84.70
2019-03-29T00:52:58.108Z,84.60
2019-03-29T00:53:54.020Z,84.50
2019-03-29T00:55:00.442Z,84.70
2019-03-29T00:56:05.876Z,84.60
2019-03-29T00:57:10.204Z,84.90
2019-03-29T00:58:16.965Z,84.70
2019-03-29T00:59:26.903Z,84.90
2019-03-29T01:00:31.355Z,85.00
2019-03-29T01:01:50.186Z,84.80
2019-03-29T01:02:53.656Z,84.90
2019-03-29T01:04:06.778Z,85.00
2019-03-29T01:05:14.308Z,84.90
2019-03-29T01:06:23.165Z,85.10
2019-03-29T01:07:45.618Z,85.00
2019-03-29T01:08:38.405Z,84.90
2019-03-29T01:09:45.590Z,85.00
2019-03-29T01:10:52.282Z,85.00
2019-03-29T01:12:00.843Z,85.10
2019-03-29T01:13:05.252Z,85.40
2019-03-29T01:14:13.556Z,85.40
2019-03-29T01:15:19.340Z,85.60
2019-03-29T01:16:27.835Z,86.30
2019-03-29T01:17:34.476Z,85.70
2019-03-29T01:18:46.188Z,85.60
2019-03-29T01:19:54.453Z,85.70
2019-03-29T01:20:59.985Z,86.30
2019-03-29T01:22:08.958Z,85.60
2019-03-29T01:23:17.622Z,85.40
2019-03-29T01:24:22.176Z,85.60
2019-03-29T01:25:27.870Z,85.50
2019-03-29T01:26:37.904Z,85.60
2019-03-29T01:27:41.265Z,85.70
2019-03-29T01:28:58.886Z,85.90
2019-03-29T01:30:01.135Z,85.70
2019-03-29T01:31:05.436Z,85.80
2019-03-29T01:32:09.719Z,85.70
2019-03-29T01:33:15.774Z,85.60
2019-03-29T01:34:24.589Z,85.70
2019-03-29T01:35:30.455Z,85.90
2019-03-29T01:36:34.663Z,85.90
2019-03-29T01:37:39.057Z,85.90
2019-03-29T01:38:43.352Z,86.00
2019-03-29T01:39:52.078Z,85.70
2019-03-29T01:40:53.450Z,85.90
2019-03-29T01:42:03.569Z,86.10
2019-03-29T01:43:07.872Z,86.10
2019-03-29T01:44:12.139Z,86.10
2019-03-29T01:45:19.935Z,86.10
2019-03-29T01:46:30.432Z,86.10
2019-03-29T01:47:37.912Z,86.30
2019-03-29T01:48:42.219Z,86.10
2019-03-29T01:49:50.904Z,86.10
2019-03-29T01:50:58.273Z,86.10
2019-03-29T01:52:07.000Z,86.10
2019-03-29T01:53:15.616Z,86.30
2019-03-29T01:54:21.446Z,86.20
2019-03-29T01:55:25.884Z,86.30
2019-03-29T01:56:38.832Z,86.40
2019-03-29T01:57:48.188Z,86.30
2019-03-29T01:58:52.410Z,86.40
2019-03-29T01:59:57.756Z,86.30
2019-03-29T02:01:21.396Z,86.60
2019-03-29T02:02:30.262Z,86.50
2019-03-29T02:03:39.991Z,87.00
2019-03-29T02:04:52.550Z,86.70
2019-03-29T02:05:53.898Z,86.50
2019-03-29T02:06:59.421Z,86.50
2019-03-29T02:08:18.241Z,86.50
2019-03-29T02:09:13.932Z,86.70
2019-03-29T02:10:18.296Z,86.60
2019-03-29T02:11:29.860Z,87.40
2019-03-29T02:12:34.220Z,86.70
2019-03-29T02:13:43.748Z,86.70
2019-03-29T02:14:49.744Z,86.50
2019-03-29T02:15:55.698Z,86.30
2019-03-29T02:17:01.540Z,86.50
2019-03-29T02:18:07.281Z,86.30
2019-03-29T02:19:11.533Z,86.40
2019-03-29T02:20:15.756Z,86.40
2019-03-29T02:21:20.066Z,86.40
2019-03-29T02:22:26.861Z,86.40
2019-03-29T02:23:35.318Z,86.40
2019-03-29T02:24:44.690Z,86.30
2019-03-29T02:25:48.912Z,86.10
2019-03-29T02:26:54.558Z,86.10
2019-03-29T02:27:58.748Z,86.10
2019-03-29T02:29:03.046Z,86.00
2019-03-29T02:30:08.767Z,86.00
2019-03-29T02:31:14.354Z,85.90
2019-03-29T02:32:18.429Z,85.70
2019-03-29T02:33:22.610Z,85.60
2019-03-29T02:34:26.906Z,85.70
2019-03-29T02:35:31.101Z,85.60
2019-03-29T02:36:37.965Z,85.50
2019-03-29T02:37:45.573Z,85.40
2019-03-29T02:38:55.453Z,85.40
2019-03-29T02:39:55.569Z,85.40
2019-03-29T02:41:01.446Z,85.20
2019-03-29T02:42:07.875Z,85.30
2019-03-29T02:43:13.792Z,85.20
2019-03-29T02:44:19.351Z,85.20
2019-03-29T02:45:23.792Z,85.00
2019-03-29T02:46:30.837Z,85.10
2019-03-29T02:47:36.627Z,85.10
2019-03-29T02:48:44.544Z,85.00
2019-03-29T02:49:48.576Z,85.00
2019-03-29T02:50:52.836Z,84.90
2019-03-29T02:51:57.074Z,84.90
2019-03-29T02:53:02.629Z,84.90
2019-03-29T02:54:08.564Z,84.90
2019-03-29T02:55:15.530Z,85.00
2019-03-29T02:56:21.384Z,84.90
2019-03-29T02:57:26.837Z,85.10
2019-03-29T02:58:42.584Z,85.10
2019-03-29T02:59:46.782Z,85.00
2019-03-29T03:00:52.625Z,84.90
2019-03-29T03:01:59.705Z,85.00
2019-03-29T03:03:08.120Z,85.20
2019-03-29T03:04:15.491Z,85.10
2019-03-29T03:05:21.428Z,85.00
2019-03-29T03:06:28.704Z,85.00
2019-03-29T03:07:38.422Z,85.20
2019-03-29T03:08:46.668Z,85.30
2019-03-29T03:09:52.897Z,85.20
2019-03-29T03:11:08.401Z,85.60
2019-03-29T03:12:21.359Z,86.20
2019-03-29T03:13:25.722Z,85.40
2019-03-29T03:14:32.953Z,85.50
2019-03-29T03:15:42.833Z,85.80
2019-03-29T03:16:49.573Z,85.70
2019-03-29T03:17:54.602Z,85.70
2019-03-29T03:19:00.541Z,85.70
2019-03-29T03:20:15.066Z,85.70
2019-03-29T03:21:19.658Z,86.00
2019-03-29T03:22:25.542Z,85.30
2019-03-29T03:23:32.123Z,85.90
2019-03-29T03:24:36.522Z,85.90
2019-03-29T03:25:44.562Z,85.90
2019-03-29T03:26:46.539Z,85.80
2019-03-29T03:27:50.851Z,86.10
2019-03-29T03:28:56.708Z,86.10
2019-03-29T03:30:00.956Z,86.10
2019-03-29T03:31:06.778Z,86.30
2019-03-29T03:32:13.063Z,86.30
2019-03-29T03:33:18.549Z,86.30
2019-03-29T03:34:22.665Z,86.30
2019-03-29T03:35:29.476Z,86.40
2019-03-29T03:36:33.769Z,86.50
2019-03-29T03:37:39.511Z,86.40
2019-03-29T03:38:43.684Z,86.40
2019-03-29T03:39:49.423Z,86.40
2019-03-29T03:40:54.865Z,86.40
2019-03-29T03:42:00.330Z,86.40
2019-03-29T03:43:04.577Z,86.40
2019-03-29T03:44:08.778Z,86.50
2019-03-29T03:45:13.257Z,87.10
2019-03-29T03:46:17.479Z,86.50
2019-03-29T03:47:21.618Z,86.50
2019-03-29T03:48:28.569Z,86.50
2019-03-29T03:49:31.481Z,86.50
2019-03-29T03:50:41.715Z,86.60
2019-03-29T03:51:47.136Z,86.70
2019-03-29T03:52:51.229Z,86.80
2019-03-29T03:53:58.787Z,86.80
2019-03-29T03:55:03.992Z,86.70
2019-03-29T03:56:11.809Z,86.90
2019-03-29T03:57:24.203Z,86.80
2019-03-29T03:58:30.074Z,87.00
2019-03-29T03:59:40.390Z,86.90
2019-03-29T04:00:47.849Z,86.90
2019-03-29T04:01:54.895Z,86.90
2019-03-29T04:03:05.029Z,86.80
2019-03-29T04:04:10.994Z,86.90
2019-03-29T04:05:18.445Z,87.20
2019-03-29T04:06:25.840Z,87.10
2019-03-29T04:07:33.382Z,87.20
2019-03-29T04:08:37.572Z,87.00
2019-03-29T04:09:50.064Z,87.10
2019-03-29T04:10:47.906Z,87.20
2019-03-29T04:12:00.605Z,87.20
2019-03-29T04:13:02.695Z,87.50
2019-03-29T04:14:08.547Z,87.30
2019-03-29T04:15:12.907Z,87.50
2019-03-29T04:16:17.127Z,87.40
2019-03-29T04:17:32.215Z,87.30
2019-03-29T04:18:31.006Z,87.50
2019-03-29T04:19:39.697Z,87.50
2019-03-29T04:20:45.374Z,87.50
2019-03-29T04:22:01.413Z,87.60
2019-03-29T04:23:06.801Z,87.70
2019-03-29T04:24:15.366Z,87.60
2019-03-29T04:25:22.756Z,87.90
2019-03-29T04:26:28.057Z,87.80
2019-03-29T04:27:38.465Z,88.60
2019-03-29T04:28:44.059Z,87.70
2019-03-29T04:29:55.017Z,87.90
2019-03-29T04:31:01.930Z,87.70
2019-03-29T04:32:06.115Z,87.70
2019-03-29T04:33:13.444Z,87.90
2019-03-29T04:34:19.263Z,87.90
2019-03-29T04:35:24.913Z,88.00
2019-03-29T04:36:29.201Z,88.00
2019-03-29T04:37:35.112Z,88.00
2019-03-29T04:38:40.863Z,87.80
2019-03-29T04:39:45.133Z,88.00
2019-03-29T04:40:53.558Z,87.90
2019-03-29T04:41:57.916Z,87.90
2019-03-29T04:43:02.172Z,88.00
2019-03-29T04:44:15.819Z,87.90
2019-03-29T04:45:18.192Z,87.90
2019-03-29T04:46:27.838Z,87.70
2019-03-29T04:47:32.892Z,87.70
2019-03-29T04:48:40.299Z,87.60
2019-03-29T04:49:44.759Z,87.70
2019-03-29T04:50:50.340Z,87.70
2019-03-29T04:51:54.640Z,87.60
2019-03-29T04:53:01.747Z,87.40
2019-03-29T04:54:09.409Z,87.60
2019-03-29T04:55:13.693Z,87.50
2019-03-29T04:56:18.026Z,87.50
2019-03-29T04:57:23.946Z,87.50
2019-03-29T04:58:33.447Z,87.50
2019-03-29T04:59:39.340Z,87.70
2019-03-29T05:00:43.664Z,87.50
2019-03-29T05:01:47.854Z,87.50
2019-03-29T05:02:56.212Z,87.30
2019-03-29T05:04:03.795Z,87.30
2019-03-29T05:05:07.873Z,87.40
2019-03-29T05:06:12.280Z,87.50
2019-03-29T05:07:21.785Z,87.60
2019-03-29T05:08:26.832Z,87.60
2019-03-29T05:09:31.018Z,87.60
2019-03-29T05:10:39.290Z,87.60
2019-03-29T05:11:49.652Z,87.20
2019-03-29T05:12:55.152Z,87.60
2019-03-29T05:13:59.401Z,87.60
2019-03-29T05:15:04.360Z,87.60
2019-03-29T05:16:11.159Z,87.70
2019-03-29T05:17:18.030Z,87.60
2019-03-29T05:18:23.929Z,87.70
2019-03-29T05:19:30.285Z,87.60
2019-03-29T05:20:37.130Z,87.60
2019-03-29T05:21:44.367Z,87.50
2019-03-29T05:22:50.301Z,87.50
2019-03-29T05:23:57.452Z,87.40
2019-03-29T05:25:03.317Z,87.40
2019-03-29T05:26:09.161Z,87.40
2019-03-29T05:27:14.572Z,87.20
2019-03-29T05:28:18.785Z,87.10
2019-03-29T05:29:27.373Z,87.00
2019-03-29T05:30:31.593Z,87.00
2019-03-29T05:31:35.817Z,86.80
2019-03-29T05:32:41.872Z,86.50
2019-03-29T05:33:46.109Z,86.40
2019-03-29T05:34:50.833Z,86.30
2019-03-29T05:35:56.611Z,86.10
2019-03-29T05:37:00.650Z,86.10
2019-03-29T05:38:05.071Z,86.20
2019-03-29T05:39:13.795Z,86.20
2019-03-29T05:40:33.978Z,86.00
2019-03-29T05:41:33.949Z,86.80
2019-03-29T05:42:35.540Z,85.90
2019-03-29T05:43:39.612Z,85.70
2019-03-29T05:44:45.247Z,85.40
2019-03-29T05:45:49.350Z,85.30
2019-03-29T05:46:53.611Z,85.30
2019-03-29T05:47:57.739Z,85.40
2019-03-29T05:49:03.758Z,85.40
2019-03-29T05:50:08.191Z,84.80
2019-03-29T05:51:16.187Z,85.30
2019-03-29T05:52:20.962Z,85.30
2019-03-29T05:53:25.051Z,85.30
2019-03-29T05:54:30.179Z,85.20
2019-03-29T05:55:35.288Z,85.00
2019-03-29T05:56:40.032Z,85.00
2019-03-29T05:57:44.213Z,84.80
2019-03-29T05:58:52.253Z,84.80
2019-03-29T06:00:06.383Z,84.70
2019-03-29T06:01:13.728Z,84.80
2019-03-29T06:02:34.558Z,84.80
2019-03-29T06:03:42.595Z,84.80
2019-03-29T06:04:49.776Z,84.70
2019-03-29T06:05:58.655Z,84.60
2019-03-29T06:07:08.093Z,84.50
2019-03-29T06:08:12.364Z,84.50
2019-03-29T06:09:19.855Z,84.40
2019-03-29T06:10:28.691Z,84.50
2019-03-29T06:11:42.559Z,84.50
2019-03-29T06:14:02.840Z,84.40
2019-03-29T06:14:05.089Z,84.20
2019-03-29T06:15:45.010Z,84.00
2019-03-29T06:16:23.951Z,83.80
2019-03-29T06:17:54.071Z,83.70
2019-03-29T06:18:49.934Z,83.50
2019-03-29T06:19:54.047Z,83.40
2019-03-29T06:20:58.338Z,83.40
2019-03-29T06:22:06.422Z,83.40
2019-03-29T06:23:14.266Z,83.60
2019-03-29T06:24:22.949Z,83.70
2019-03-29T06:25:30.250Z,83.60
2019-03-29T06:26:34.609Z,83.70
2019-03-29T06:27:40.423Z,83.60
2019-03-29T06:28:45.825Z,83.30
2019-03-29T06:29:54.751Z,83.30
2019-03-29T06:31:00.492Z,83.30
2019-03-29T06:32:07.781Z,83.40
2019-03-29T06:33:14.174Z,83.60
2019-03-29T06:34:20.023Z,83.70
2019-03-29T06:35:26.528Z,83.70
2019-03-29T06:36:39.591Z,83.60
2019-03-29T06:37:47.437Z,83.70
2019-03-29T06:38:52.151Z,83.60
2019-03-29T06:39:58.400Z,83.30
2019-03-29T06:41:06.683Z,83.30
2019-03-29T06:42:12.580Z,83.40
2019-03-29T06:43:19.540Z,83.30
2019-03-29T06:44:26.975Z,83.20
2019-03-29T06:45:31.425Z,83.10
2019-03-29T06:46:38.089Z,83.20
2019-03-29T06:47:41.561Z,82.70
2019-03-29T06:48:49.482Z,82.80
2019-03-29T06:49:55.690Z,82.80
2019-03-29T06:51:05.352Z,82.80
2019-03-29T06:52:11.088Z,82.70
2019-03-29T06:53:15.372Z,82.50
2019-03-29T06:54:19.577Z,82.70
2019-03-29T06:55:28.484Z,82.70
2019-03-29T06:56:42.255Z,82.50
2019-03-29T06:57:45.129Z,82.40
2019-03-29T06:58:53.226Z,82.40
2019-03-29T07:00:02.551Z,81.80
2019-03-29T07:01:09.379Z,81.80
2019-03-29T07:02:15.486Z,81.80
2019-03-29T07:03:21.104Z,81.40
2019-03-29T07:04:28.237Z,81.20
2019-03-29T07:05:36.264Z,81.00
2019-03-29T07:06:41.999Z,81.00
2019-03-29T07:07:49.183Z,81.00
2019-03-29T07:08:54.791Z,80.80
2019-03-29T07:10:01.558Z,80.80
2019-03-29T07:11:17.122Z,80.80
2019-03-29T07:12:12.587Z,80.60
2019-03-29T07:13:16.816Z,80.00
2019-03-29T07:14:28.366Z,79.80
2019-03-29T07:15:31.119Z,79.70
2019-03-29T07:16:39.512Z,79.30
2019-03-29T07:17:45.367Z,79.40
2019-03-29T07:18:51.333Z,79.60
2019-03-29T07:20:00.853Z,79.40
2019-03-29T07:21:20.893Z,79.30
2019-03-29T07:22:17.143Z,79.00
2019-03-29T07:23:31.097Z,78.70
2019-03-29T07:24:34.068Z,78.80
2019-03-29T07:25:38.249Z,79.00
2019-03-29T07:26:44.098Z,79.30
2019-03-29T07:27:52.335Z,79.20
2019-03-29T07:29:01.027Z,79.30
2019-03-29T07:30:09.548Z,79.30
2019-03-29T07:31:15.424Z,79.00
2019-03-29T07:32:20.965Z,78.30
2019-03-29T07:33:30.728Z,77.90
2019-03-29T07:34:36.574Z,77.60
2019-03-29T07:35:42.759Z,77.60
2019-03-29T07:36:47.053Z,77.60
2019-03-29T07:37:51.550Z,78.00
2019-03-29T07:38:55.754Z,77.70
2019-03-29T07:40:00.048Z,77.80
2019-03-29T07:41:06.814Z,77.90
2019-03-29T07:42:12.467Z,78.00
2019-03-29T07:43:18.130Z,78.00
2019-03-29T07:44:23.957Z,78.30
2019-03-29T07:45:28.464Z,78.40
2019-03-29T07:46:32.757Z,78.40
2019-03-29T07:47:39.693Z,78.40
2019-03-29T07:48:48.678Z,78.60
2019-03-29T07:50:02.325Z,78.70
2019-03-29T07:51:10.464Z,78.40
2019-03-29T07:52:16.215Z,78.40
2019-03-29T07:53:23.282Z,78.40
2019-03-29T07:54:27.787Z,78.60
2019-03-29T07:55:37.188Z,78.60
2019-03-29T07:56:46.721Z,78.80
2019-03-29T07:57:53.841Z,79.00
2019-03-29T07:58:57.861Z,79.10
2019-03-29T08:00:02.161Z,79.20
2019-03-29T08:01:08.694Z,79.00
2019-03-29T08:02:16.614Z,79.10
2019-03-29T08:03:23.887Z,79.10
2019-03-29T08:04:29.681Z,79.30
2019-03-29T08:05:35.372Z,79.30
2019-03-29T08:06:39.833Z,79.50
2019-03-29T08:07:47.228Z,79.70
2019-03-29T08:08:54.217Z,79.80
2019-03-29T08:10:03.228Z,79.50
2019-03-29T08:11:05.954Z,79.50
2019-03-29T08:12:13.213Z,79.40
2019-03-29T08:13:20.391Z,79.40
2019-03-29T08:14:27.345Z,79.30
2019-03-29T08:15:32.732Z,79.50
2019-03-29T08:16:39.624Z,79.60
2019-03-29T08:17:43.961Z,79.50
2019-03-29T08:18:48.167Z,79.30
2019-03-29T08:20:24.539Z,79.50
2019-03-29T08:20:59.713Z,79.30
2019-03-29T08:22:04.020Z,79.20
2019-03-29T08:23:08.971Z,79.30
2019-03-29T08:24:17.566Z,79.20
2019-03-29T08:25:21.874Z,79.50
2019-03-29T08:26:27.546Z,79.30
2019-03-29T08:27:31.926Z,79.30
2019-03-29T08:28:37.279Z,79.30
2019-03-29T08:29:41.666Z,79.30
2019-03-29T08:30:50.729Z,78.90
2019-03-29T08:31:55.694Z,79.50
2019-03-29T08:33:00.153Z,78.60
2019-03-29T08:34:04.452Z,79.00
2019-03-29T08:35:12.728Z,78.80
2019-03-29T08:36:19.368Z,78.60
2019-03-29T08:37:26.373Z,78.50
2019-03-29T08:38:30.755Z,78.50
2019-03-29T08:39:34.901Z,78.50
2019-03-29T08:40:40.597Z,77.70
2019-03-29T08:41:59.071Z,78.20
2019-03-29T08:42:53.974Z,78.20
2019-03-29T08:43:58.230Z,77.70
2019-03-29T08:45:04.269Z,77.20
2019-03-29T08:46:08.508Z,77.10
2019-03-29T08:47:12.694Z,77.30
2019-03-29T08:48:16.972Z,77.60
2019-03-29T08:49:24.504Z,77.80
2019-03-29T08:50:28.797Z,77.90
2019-03-29T08:51:33.136Z,77.40
2019-03-29T08:52:37.378Z,77.30
2019-03-29T08:53:41.509Z,77.00
2019-03-29T08:54:51.006Z,76.60
2019-03-29T08:55:51.474Z,76.50
2019-03-29T08:56:55.783Z,76.20
2019-03-29T08:58:03.003Z,75.90
2019-03-29T08:59:07.281Z,75.90
2019-03-29T09:00:15.746Z,75.50
2019-03-29T09:01:21.546Z,75.20
2019-03-29T09:02:27.285Z,74.70
2019-03-29T09:03:31.531Z,74.70
2019-03-29T09:04:38.294Z,74.80
2019-03-29T09:05:42.507Z,74.80
2019-03-29T09:06:53.265Z,74.90
2019-03-29T09:07:55.780Z,75.20
2019-03-29T09:09:02.319Z,75.20
2019-03-29T09:10:09.483Z,74.40
2019-03-29T09:11:15.384Z,74.50
2019-03-29T09:12:21.095Z,73.80
2019-03-29T09:13:26.303Z,74.10
2019-03-29T09:14:31.682Z,73.80
2019-03-29T09:15:35.900Z,74.30
2019-03-29T09:16:40.068Z,73.50
2019-03-29T09:17:44.240Z,73.30
2019-03-29T09:18:48.740Z,73.30
2019-03-29T09:19:52.923Z,73.60
2019-03-29T09:20:58.797Z,73.40
2019-03-29T09:22:03.219Z,73.70
2019-03-29T09:23:10.274Z,73.80
2019-03-29T09:24:21.895Z,73.80
2019-03-29T09:25:21.182Z,74.50
2019-03-29T09:26:25.621Z,73.80
2019-03-29T09:27:32.124Z,73.60
2019-03-29T09:28:39.368Z,73.60
2019-03-29T09:29:43.714Z,73.60
2019-03-29T09:30:49.595Z,73.50
2019-03-29T09:31:53.797Z,72.90
2019-03-29T09:32:58.591Z,72.40
2019-03-29T09:34:03.035Z,72.20
2019-03-29T09:35:07.423Z,72.00
2019-03-29T09:36:11.743Z,72.20
2019-03-29T09:37:16.004Z,72.20
2019-03-29T09:38:24.853Z,72.20
2019-03-29T09:39:30.227Z,72.50
2019-03-29T09:40:34.517Z,72.10
2019-03-29T09:41:38.941Z,71.80
2019-03-29T09:42:44.290Z,71.80
2019-03-29T09:43:48.633Z,72.00
2019-03-29T09:44:54.374Z,72.20
2019-03-29T09:46:03.167Z,71.70
2019-03-29T09:47:07.476Z,71.60
2019-03-29T09:48:13.213Z,71.40
2019-03-29T09:49:17.717Z,71.20
2019-03-29T09:50:23.143Z,71.50
2019-03-29T09:51:31.397Z,71.30
2019-03-29T09:52:35.694Z,71.30
2019-03-29T09:53:42.431Z,71.50
2019-03-29T09:54:46.745Z,71.80
2019-03-29T09:55:53.486Z,71.30
2019-03-29T09:57:00.792Z,71.30
2019-03-29T09:58:04.929Z,70.80
2019-03-29T09:59:09.117Z,70.70
2019-03-29T10:00:20.830Z,70.30
2019-03-29T10:01:22.204Z,69.80
2019-03-29T10:02:26.583Z,69.90
2019-03-29T10:03:31.924Z,70.10
2019-03-29T10:04:40.993Z,70.20
2019-03-29T10:05:41.924Z,70.20
2019-03-29T10:06:47.876Z,70.20
2019-03-29T10:07:53.247Z,70.20
2019-03-29T10:08:57.414Z,70.10
2019-03-29T10:10:05.742Z,70.00
2019-03-29T10:11:10.014Z,70.20
2019-03-29T10:12:15.756Z,70.50
2019-03-29T10:13:21.609Z,69.90
2019-03-29T10:14:28.866Z,69.80
2019-03-29T10:15:33.005Z,69.80
2019-03-29T10:16:40.697Z,69.40
2019-03-29T10:17:44.129Z,69.80
2019-03-29T10:18:48.430Z,70.00
2019-03-29T10:19:54.177Z,69.80
2019-03-29T10:20:58.358Z,69.50
2019-03-29T10:22:04.221Z,69.30
2019-03-29T10:23:14.638Z,69.30
2019-03-29T10:24:20.352Z,69.30
2019-03-29T10:25:24.620Z,69.50
2019-03-29T10:26:30.346Z,68.70
2019-03-29T10:27:37.543Z,68.40
2019-03-29T10:28:43.394Z,67.90
2019-03-29T10:29:49.218Z,67.80
2019-03-29T10:30:55.142Z,67.30
2019-03-29T10:32:01.392Z,67.60
2019-03-29T10:33:07.391Z,67.80
2019-03-29T10:34:13.341Z,67.90
2019-03-29T10:35:19.210Z,67.30
2019-03-29T10:36:23.494Z,66.80
2019-03-29T10:37:32.204Z,66.80
2019-03-29T10:38:36.282Z,67.00
2019-03-29T10:39:41.720Z,66.80
2019-03-29T10:40:48.319Z,66.20
2019-03-29T10:41:55.513Z,66.40
2019-03-29T10:43:01.423Z,66.00
2019-03-29T10:44:07.244Z,65.50
2019-03-29T10:45:12.706Z,65.30
2019-03-29T10:46:17.341Z,65.20
2019-03-29T10:47:40.874Z,64.80
2019-03-29T10:48:27.546Z,65.00
2019-03-29T10:49:31.848Z,64.80
2019-03-29T10:50:36.033Z,64.80
2019-03-29T10:51:53.070Z,64.80
2019-03-29T10:52:55.240Z,64.70
2019-03-29T10:53:59.472Z,64.50
2019-03-29T10:55:04.017Z,64.70
2019-03-29T10:56:08.294Z,64.50
2019-03-29T10:57:13.554Z,63.90
2019-03-29T10:58:21.746Z,64.30
2019-03-29T10:59:27.714Z,64.30
2019-03-29T11:00:42.218Z,64.50
2019-03-29T11:01:53.851Z,64.50
2019-03-29T11:02:59.689Z,64.90
2019-03-29T11:04:05.816Z,65.40
2019-03-29T11:05:10.516Z,65.70
2019-03-29T11:06:14.737Z,65.90
2019-03-29T11:07:19.185Z,65.90
2019-03-29T11:08:23.478Z,65.90
2019-03-29T11:09:27.627Z,65.70
2019-03-29T11:10:40.249Z,65.90
2019-03-29T11:11:45.824Z,65.70
2019-03-29T11:12:56.322Z,65.70
2019-03-29T11:14:04.966Z,64.90
2019-03-29T11:15:09.046Z,64.20
2019-03-29T11:16:16.991Z,64.00
2019-03-29T11:17:21.393Z,64.40
2019-03-29T11:18:29.128Z,64.50
2019-03-29T11:19:35.042Z,64.60
2019-03-29T11:20:41.031Z,64.70
2019-03-29T11:21:45.327Z,64.50
2019-03-29T11:22:49.682Z,64.60
2019-03-29T11:23:54.002Z,64.90
2019-03-29T11:25:02.073Z,65.20
2019-03-29T11:26:09.350Z,65.60
2019-03-29T11:27:13.616Z,65.70
2019-03-29T11:28:20.542Z,65.90
2019-03-29T11:29:26.306Z,66.30
2019-03-29T11:30:41.985Z,66.20
2019-03-29T11:31:40.862Z,66.60
2019-03-29T11:32:44.995Z,66.60
2019-03-29T11:33:53.506Z,66.50
2019-03-29T11:35:00.538Z,66.70
2019-03-29T11:36:04.908Z,67.00
2019-03-29T11:37:10.698Z,67.30
2019-03-29T11:38:15.023Z,67.50
2019-03-29T11:39:23.503Z,67.40
2019-03-29T11:40:26.518Z,67.50
2019-03-29T11:41:33.153Z,67.20
2019-03-29T11:42:42.196Z,67.20
2019-03-29T11:43:46.496Z,67.40
2019-03-29T11:44:57.698Z,66.80
2019-03-29T11:46:03.612Z,66.50
2019-03-29T11:47:07.978Z,66.30
2019-03-29T11:48:12.438Z,66.70
2019-03-29T11:49:19.414Z,66.40
2019-03-29T11:50:28.761Z,66.60
2019-03-29T11:51:32.725Z,66.50
2019-03-29T11:52:38.394Z,66.80
2019-03-29T11:53:45.267Z,66.80
2019-03-29T11:54:50.231Z,67.00
2019-03-29T11:55:56.205Z,67.30
2019-03-29T11:57:01.855Z,67.30
2019-03-29T11:58:07.447Z,67.50
2019-03-29T11:59:16.778Z,67.90
2019-03-29T12:00:26.919Z,68.30
2019-03-29T12:01:31.132Z,68.60
2019-03-29T12:02:36.862Z,68.60
2019-03-29T12:03:42.609Z,68.60
2019-03-29T12:04:49.469Z,68.70
2019-03-29T12:05:56.545Z,68.80
2019-03-29T12:07:03.656Z,69.00
2019-03-29T12:08:11.085Z,68.90
2019-03-29T12:09:15.415Z,69.00
2019-03-29T12:10:21.141Z,69.00
2019-03-29T12:11:28.145Z,69.00
2019-03-29T12:12:34.359Z,68.80
2019-03-29T12:13:41.226Z,69.00
2019-03-29T12:14:44.770Z,69.30
2019-03-29T12:15:49.129Z,69.00
2019-03-29T12:16:56.438Z,69.00
2019-03-29T12:18:00.716Z,69.00
2019-03-29T12:19:08.085Z,69.10
2019-03-29T12:20:13.974Z,69.10
2019-03-29T12:21:20.127Z,68.90
2019-03-29T12:22:24.394Z,69.00
2019-03-29T12:23:30.047Z,68.60
2019-03-29T12:24:34.459Z,68.40
2019-03-29T12:25:41.516Z,68.20
2019-03-29T12:26:45.987Z,68.20
2019-03-29T12:27:52.014Z,68.60
2019-03-29T12:28:57.790Z,68.30
2019-03-29T12:30:06.123Z,68.20
2019-03-29T12:31:16.429Z,68.40
2019-03-29T12:32:30.191Z,68.80
2019-03-29T12:33:34.439Z,68.50
2019-03-29T12:34:39.636Z,68.10
2019-03-29T12:35:45.007Z,68.10
2019-03-29T12:36:53.378Z,68.00
2019-03-29T12:37:57.679Z,68.80
2019-03-29T12:39:02.023Z,68.10
2019-03-29T12:40:11.026Z,68.00
2019-03-29T12:41:15.176Z,68.00
2019-03-29T12:42:21.055Z,68.00
2019-03-29T12:43:25.455Z,68.20
2019-03-29T12:44:29.967Z,68.30
2019-03-29T12:45:34.251Z,68.40
2019-03-29T12:46:40.090Z,68.20
2019-03-29T12:49:11.947Z,68.50
2019-03-29T12:50:17.709Z,68.50
2019-03-29T12:51:23.426Z,68.40
2019-03-29T12:52:29.320Z,68.10
2019-03-29T12:53:36.575Z,67.70
2019-03-29T12:54:42.327Z,67.80
2019-03-29T12:55:49.581Z,68.20
2019-03-29T12:56:56.317Z,67.70
2019-03-29T12:58:02.219Z,67.70
2019-03-29T12:59:09.589Z,67.80
2019-03-29T13:00:19.338Z,68.10
2019-03-29T13:01:38.401Z,68.10
2019-03-29T13:02:35.591Z,68.10
2019-03-29T13:03:45.264Z,68.30
2019-03-29T13:04:49.669Z,68.40
2019-03-29T13:05:54.183Z,68.40
2019-03-29T13:06:58.532Z,68.60
2019-03-29T13:08:02.814Z,68.90
2019-03-29T13:09:10.386Z,68.90
2019-03-29T13:10:18.396Z,68.80
2019-03-29T13:11:25.718Z,69.10
2019-03-29T13:12:31.497Z,69.30
2019-03-29T13:13:35.723Z,69.00
2019-03-29T13:14:43.562Z,69.10
2019-03-29T13:15:48.593Z,69.30
2019-03-29T13:17:02.591Z,69.00
2019-03-29T13:18:09.230Z,69.00
2019-03-29T13:19:13.553Z,68.90
2019-03-29T13:20:17.871Z,69.00
2019-03-29T13:21:22.149Z,69.10
2019-03-29T13:22:26.653Z,69.00
2019-03-29T13:23:35.068Z,68.90
2019-03-29T13:24:39.339Z,68.80
2019-03-29T13:25:45.197Z,69.00
2019-03-29T13:26:54.159Z,69.10
2019-03-29T13:27:59.337Z,69.10
2019-03-29T13:29:03.295Z,69.30
2019-03-29T13:30:08.738Z,69.40
2019-03-29T13:31:13.096Z,69.50
2019-03-29T13:32:19.960Z,69.30
2019-03-29T13:33:25.371Z,69.40
2019-03-29T13:34:31.147Z,69.00
2019-03-29T13:35:38.566Z,69.30
2019-03-29T13:36:45.741Z,69.30
2019-03-29T13:37:50.057Z,69.00
2019-03-29T13:38:58.862Z,69.10
2019-03-29T13:40:03.479Z,68.60
2019-03-29T13:41:07.725Z,68.60
2019-03-29T13:42:12.017Z,68.20
2019-03-29T13:43:17.618Z,68.80
2019-03-29T13:44:25.426Z,68.20
2019-03-29T13:45:30.900Z,68.40
2019-03-29T13:46:38.282Z,68.20
2019-03-29T13:47:42.738Z,67.80
2019-03-29T13:48:47.007Z,67.90
2019-03-29T13:49:51.255Z,67.90
2019-03-29T13:50:59.616Z,67.90
2019-03-29T13:52:04.132Z,67.50
2019-03-29T13:53:08.359Z,67.00
2019-03-29T13:54:17.139Z,67.00
2019-03-29T13:55:21.409Z,66.80
2019-03-29T13:56:28.028Z,66.70
2019-03-29T13:57:36.082Z,66.70
2019-03-29T13:58:39.447Z,66.70
2019-03-29T13:59:44.283Z,66.70
2019-03-29T14:00:50.395Z,66.40
2019-03-29T14:01:57.322Z,66.40
2019-03-29T14:03:05.875Z,66.80
2019-03-29T14:04:11.790Z,66.50
2019-03-29T14:05:17.619Z,66.50
2019-03-29T14:06:23.465Z,66.80
2019-03-29T14:07:27.669Z,67.10
2019-03-29T14:08:32.076Z,67.00
2019-03-29T14:09:36.284Z,66.80
2019-03-29T14:10:40.433Z,66.80
2019-03-29T14:11:46.305Z,66.70
2019-03-29T14:12:53.407Z,66.70
2019-03-29T14:13:57.742Z,67.00
2019-03-29T14:15:02.081Z,66.90
2019-03-29T14:16:08.899Z,67.00